Time;durP1;ratioP1;P1;durP2;ratioP2;P2;SDS_P1;SDS_P2;PMS_P1;PMS_P2;Temp;Humidity;BMP_temperature;BMP_pressure;BME280_temperature;BME280_humidity;BME280_pressure;Samples;Min_cycle;Max_cycle;Signal;HPM_P1;HPM_P2
2022/07/13 00:01:57;;;;;;;1.73;1.63;;;;;;;23.01;44.68;100602.59;5031863;28;20047;-87
2022/07/13 00:04:24;;;;;;;1.80;1.70;;;;;;;22.96;44.83;100610.47;5057523;28;20123;-83
2022/07/13 00:07:21;;;;;;;2.80;1.83;;;;;;;22.95;45.05;100608.78;5030645;28;20177;-78
2022/07/13 00:09:48;;;;;;;1.65;1.55;;;;;;;22.89;45.23;100610.41;4982459;28;20072;-78
2022/07/13 00:12:15;;;;;;;2.47;1.73;;;;;;;22.85;45.48;100609.13;5016827;28;20544;-78
2022/07/13 00:14:42;;;;;;;2.00;1.80;;;;;;;22.80;45.43;100613.47;5020474;28;20053;-78
2022/07/13 00:17:09;;;;;;;2.53;1.80;;;;;;;22.78;45.18;100608.25;5032728;28;20127;-78
2022/07/13 00:19:36;;;;;;;3.15;1.73;;;;;;;22.78;45.12;100604.72;5014377;28;20129;-78
2022/07/13 00:22:03;;;;;;;2.00;1.80;;;;;;;22.75;45.19;100605.94;5002597;28;20045;-78
2022/07/13 00:24:36;;;;;;;2.13;1.90;;;;;;;22.70;45.61;100600.28;5001404;28;20040;-78
2022/07/13 00:27:03;;;;;;;1.75;1.65;;;;;;;22.70;45.50;100595.69;5007598;28;20045;-78
2022/07/13 00:29:30;;;;;;;3.05;1.70;;;;;;;22.70;45.80;100592.16;5019927;28;20045;-88
2022/07/13 00:31:56;;;;;;;2.15;1.90;;;;;;;22.68;45.95;100592.34;5013704;28;20071;-78
2022/07/13 00:34:23;;;;;;;1.67;1.50;;;;;;;22.67;45.91;100587.97;4989019;28;20102;-78
2022/07/13 00:36:50;;;;;;;3.40;1.70;;;;;;;22.68;45.98;100588.81;4994214;28;20055;-82
2022/07/13 00:39:17;;;;;;;2.13;1.60;;;;;;;22.66;45.86;100591.69;5028807;28;20064;-82
2022/07/13 00:41:45;;;;;;;1.85;1.70;;;;;;;22.64;45.60;100585.63;5046844;28;20155;-83
2022/07/13 00:44:13;;;;;;;2.85;1.70;;;;;;;22.65;45.49;100591.91;5033445;28;20060;-82
2022/07/13 00:46:44;;;;;;;1.77;1.40;;;;;;;22.62;45.87;100593.13;4999227;28;20374;-88
2022/07/13 00:49:12;;;;;;;2.03;1.63;;;;;;;22.61;46.46;100594.16;5024408;28;20045;-82
2022/07/13 00:51:40;;;;;;;3.78;1.92;;;;;;;22.54;46.61;100595.97;5007091;28;20452;-78
2022/07/13 00:54:07;;;;;;;1.77;1.67;;;;;;;22.50;46.96;100592.81;5014531;28;20501;-82
2022/07/13 00:56:35;;;;;;;2.35;1.75;;;;;;;22.48;47.21;100599.47;5029362;28;20053;-78
2022/07/13 00:59:29;;;;;;;3.03;1.85;;;;;;;22.46;48.00;100590.69;5014701;28;20040;-78
2022/07/13 01:01:56;;;;;;;3.38;1.80;;;;;;;22.43;47.02;100589.22;4968668;28;20119;-81
2022/07/13 01:04:25;;;;;;;1.98;1.77;;;;;;;22.46;46.58;100596.09;5031605;28;20450;-88
2022/07/13 01:06:53;;;;;;;2.53;1.75;;;;;;;22.44;46.77;100596.31;5009667;28;20055;-87
2022/07/13 01:09:22;;;;;;;1.90;1.63;;;;;;;22.40;46.90;100597.72;5048398;28;20045;-88
2022/07/13 01:11:49;;;;;;;1.88;1.65;;;;;;;22.44;47.20;100590.03;5014118;28;20056;-83
2022/07/13 01:14:16;;;;;;;1.85;1.63;;;;;;;22.43;47.38;100593.78;5017468;28;20048;-82
2022/07/13 01:16:42;;;;;;;2.78;2.15;;;;;;;22.40;47.49;100595.03;5024644;28;20045;-83
2022/07/13 01:19:13;;;;;;;1.90;1.80;;;;;;;22.38;47.32;100590.84;5028308;28;20638;-83
2022/07/13 01:21:43;;;;;;;1.85;1.70;;;;;;;22.32;46.67;100587.88;5003828;28;20041;-82
2022/07/13 01:24:11;;;;;;;2.65;1.95;;;;;;;22.32;47.45;100593.28;4966019;28;20054;-82
2022/07/13 01:26:38;;;;;;;1.60;1.50;;;;;;;22.33;47.69;100591.41;4975318;28;20128;-78
2022/07/13 01:29:06;;;;;;;2.67;1.95;;;;;;;22.31;47.72;100588.91;4959052;28;20063;-78
2022/07/13 01:31:34;;;;;;;3.22;1.92;;;;;;;22.32;47.38;100589.75;4944710;28;20502;-88
2022/07/13 01:34:03;;;;;;;4.70;1.85;;;;;;;22.29;46.65;100584.72;4978626;28;20755;-89
2022/07/13 01:36:31;;;;;;;3.78;1.80;;;;;;;22.27;46.56;100587.63;4978280;28;20225;-89
2022/07/13 01:38:58;;;;;;;2.95;1.70;;;;;;;22.25;46.33;100584.25;4972770;28;20046;-89
2022/07/13 01:41:25;;;;;;;2.67;1.70;;;;;;;22.23;47.84;100594.44;4977017;28;20046;-88
2022/07/13 01:43:52;;;;;;;2.35;1.52;;;;;;;22.27;48.25;100584.91;4948599;28;20474;-88
2022/07/13 01:46:20;;;;;;;3.47;1.80;;;;;;;22.27;48.46;100584.09;4959239;28;20492;-88
2022/07/13 01:48:47;;;;;;;2.38;1.90;;;;;;;22.23;47.71;100577.38;4975586;28;20052;-88
2022/07/13 01:51:17;;;;;;;3.67;1.77;;;;;;;22.20;47.52;100573.19;4962763;28;20171;-88
2022/07/13 01:53:44;;;;;;;3.05;1.95;;;;;;;22.22;46.94;100571.13;4975667;28;20148;-88
2022/07/13 01:56:11;;;;;;;3.42;1.65;;;;;;;22.19;47.22;100576.94;5026287;28;20109;-88
2022/07/13 01:58:39;;;;;;;2.35;1.85;;;;;;;22.20;46.75;100566.94;5024261;28;20049;-89
2022/07/13 02:01:06;;;;;;;1.65;1.55;;;;;;;22.18;46.68;100567.09;5020504;28;20065;-86
2022/07/13 02:03:33;;;;;;;1.80;1.63;;;;;;;22.16;46.71;100561.06;5027037;28;20052;-88
2022/07/13 02:06:00;;;;;;;1.52;1.40;;;;;;;22.15;47.76;100572.06;5041610;28;20528;-82
2022/07/13 02:08:28;;;;;;;1.50;1.40;;;;;;;22.09;48.76;100571.81;5053546;28;20469;-82
2022/07/13 02:10:56;;;;;;;1.60;1.50;;;;;;;22.07;49.28;100565.75;5013223;28;20045;-88
2022/07/13 02:13:23;;;;;;;1.60;1.45;;;;;;;22.03;49.39;100566.31;5054855;28;20053;-82
2022/07/13 02:15:50;;;;;;;1.50;1.40;;;;;;;22.02;49.31;100559.25;5004458;28;20079;-88
2022/07/13 02:18:17;;;;;;;3.85;1.92;;;;;;;21.98;49.45;100566.94;5049961;28;20129;-88
2022/07/13 02:20:44;;;;;;;2.75;1.75;;;;;;;21.96;49.59;100563.56;5002386;28;20045;-83
2022/07/13 02:23:11;;;;;;;2.53;1.90;;;;;;;21.98;48.97;100557.97;5021611;28;20481;-78
2022/07/13 02:25:38;;;;;;;3.75;1.70;;;;;;;21.99;48.70;100546.97;5019288;28;20060;-88
2022/07/13 02:28:08;;;;;;;2.95;1.42;;;;;;;21.99;48.45;100540.72;5017052;28;20134;-88
2022/07/13 02:30:36;;;;;;;1.90;1.70;;;;;;;21.99;48.04;100549.66;5012961;28;20040;-78
2022/07/13 02:33:04;;;;;;;1.50;1.40;;;;;;;21.97;47.45;100546.31;5012247;28;20049;-80
2022/07/13 02:35:31;;;;;;;1.83;1.70;;;;;;;21.95;47.44;100548.38;5009971;28;20040;-81
2022/07/13 02:37:58;;;;;;;1.80;1.42;;;;;;;21.96;47.40;100543.81;5009191;28;20588;-82
2022/07/13 02:40:25;;;;;;;3.50;1.52;;;;;;;21.94;47.32;100543.16;4999738;28;20131;-82
2022/07/13 02:42:55;;;;;;;3.88;1.45;;;;;;;21.90;47.48;100542.69;5008569;28;20045;-88
2022/07/13 02:45:22;;;;;;;1.33;1.20;;;;;;;21.86;47.46;100544.13;5014301;28;20121;-87
2022/07/13 02:47:49;;;;;;;3.15;1.70;;;;;;;21.87;46.91;100540.38;5037445;28;20389;-88
2022/07/13 02:50:16;;;;;;;4.63;1.80;;;;;;;21.79;46.92;100540.50;5036073;28;20044;-88
2022/07/13 02:52:44;;;;;;;4.82;2.25;;;;;;;21.88;46.65;100547.47;5035354;28;20128;-80
2022/07/13 02:55:12;;;;;;;1.80;1.70;;;;;;;21.88;47.00;100548.31;5020481;28;20128;-88
2022/07/13 02:57:41;;;;;;;1.48;1.38;;;;;;;21.87;47.00;100533.09;5015851;28;20497;-88
2022/07/13 03:00:09;;;;;;;1.85;1.75;;;;;;;21.89;47.12;100535.63;5025109;28;20041;-79
2022/07/13 03:02:37;;;;;;;2.17;1.80;;;;;;;21.87;46.87;100541.22;4994350;28;20048;-80
2022/07/13 03:05:07;;;;;;;2.15;1.40;;;;;;;21.84;46.81;100538.91;4982629;28;20106;-78
2022/07/13 03:07:34;;;;;;;2.65;1.80;;;;;;;21.84;46.59;100536.19;5013021;28;20049;-77
2022/07/13 03:10:01;;;;;;;1.90;1.50;;;;;;;21.83;46.52;100536.38;5022301;28;20442;-80
2022/07/13 03:12:29;;;;;;;3.55;1.75;;;;;;;21.77;46.80;100537.16;5038458;28;20045;-82
2022/07/13 03:14:57;;;;;;;4.43;1.80;;;;;;;21.78;46.69;100533.41;5030737;28;20053;-82
2022/07/13 03:17:23;;;;;;;2.97;1.80;;;;;;;21.71;46.73;100533.34;5026285;28;20093;-88
2022/07/13 03:19:51;;;;;;;1.58;1.45;;;;;;;21.66;46.64;100538.50;5039154;28;20041;-82
2022/07/13 03:22:19;;;;;;;1.60;1.50;;;;;;;21.61;46.79;100535.53;5011792;28;20048;-84
2022/07/13 03:24:47;;;;;;;1.80;1.70;;;;;;;21.56;46.63;100535.28;5047965;28;20116;-83
2022/07/13 03:27:14;;;;;;;1.67;1.58;;;;;;;21.45;47.23;100537.44;5025865;28;20059;-83
2022/07/13 03:29:41;;;;;;;1.80;1.65;;;;;;;21.43;47.55;100525.16;5030479;28;20094;-83
2022/07/13 03:32:10;;;;;;;3.00;1.83;;;;;;;21.40;47.77;100523.66;5030463;28;20106;-83
2022/07/13 03:34:37;;;;;;;2.58;1.65;;;;;;;21.39;47.58;100526.53;5042451;28;20053;-83
2022/07/13 03:37:05;;;;;;;1.90;1.75;;;;;;;21.31;47.64;100524.75;5052134;28;20048;-83
2022/07/13 03:39:32;;;;;;;1.73;1.60;;;;;;;21.33;47.75;100514.59;5012581;28;20045;-82
2022/07/13 03:42:00;;;;;;;1.98;1.55;;;;;;;21.30;47.96;100517.69;5012639;28;20048;-82
2022/07/13 03:44:29;;;;;;;2.95;1.90;;;;;;;21.29;47.70;100516.00;5013909;28;20132;-82
2022/07/13 03:46:58;;;;;;;2.28;2.08;;;;;;;21.21;47.63;100516.09;5028705;28;20094;-83
2022/07/13 03:49:25;;;;;;;2.00;1.80;;;;;;;21.19;48.14;100520.84;5024874;28;20045;-82
2022/07/13 03:51:53;;;;;;;2.00;1.80;;;;;;;21.10;49.53;100522.84;5012268;28;20064;-82
2022/07/13 03:54:21;;;;;;;1.95;1.70;;;;;;;21.03;49.69;100530.00;5024150;28;20041;-82
2022/07/13 03:56:48;;;;;;;1.95;1.85;;;;;;;21.06;49.63;100534.19;5014101;28;21474;-82
2022/07/13 03:59:16;;;;;;;2.25;1.83;;;;;;;21.22;50.09;100523.22;5031207;28;20103;-82
2022/07/13 04:01:44;;;;;;;2.67;1.80;;;;;;;21.70;51.03;100515.44;5000732;28;20041;-82
2022/07/13 04:04:11;;;;;;;2.03;1.70;;;;;;;22.01;49.84;100511.63;5031120;28;20048;-82
2022/07/13 04:06:41;;;;;;;1.60;1.50;;;;;;;22.08;48.62;100517.91;5019201;28;20044;-84
2022/07/13 04:09:08;;;;;;;2.33;1.65;;;;;;;22.01;48.28;100514.31;5030545;28;20115;-83
2022/07/13 04:11:35;;;;;;;2.10;1.70;;;;;;;21.82;47.83;100519.31;4992068;28;20505;-83
2022/07/13 04:14:02;;;;;;;3.65;2.10;;;;;;;21.65;48.58;100520.59;5013861;28;20041;-82
2022/07/13 04:16:28;;;;;;;2.28;1.70;;;;;;;21.52;49.01;100532.09;5040702;28;20056;-82
2022/07/13 04:18:56;;;;;;;2.08;1.88;;;;;;;21.37;49.67;100539.38;5025352;28;20049;-82
2022/07/13 04:21:23;;;;;;;2.60;1.92;;;;;;;21.19;49.92;100537.94;4991167;28;20052;-82
2022/07/13 04:23:50;;;;;;;1.80;1.70;;;;;;;21.12;50.03;100525.34;5020832;28;20514;-81
2022/07/13 04:26:17;;;;;;;2.30;2.05;;;;;;;21.07;50.12;100523.22;5005991;28;20054;-82
2022/07/13 04:28:45;;;;;;;2.47;1.80;;;;;;;21.05;50.21;100529.81;5061087;28;20041;-82
2022/07/13 04:31:16;;;;;;;2.17;1.83;;;;;;;21.03;50.42;100536.22;5012306;28;20571;-82
2022/07/13 04:33:44;;;;;;;3.60;1.85;;;;;;;20.98;50.62;100540.53;5005966;28;20107;-82
2022/07/13 04:36:13;;;;;;;2.13;1.90;;;;;;;21.02;50.67;100548.06;5036458;28;20480;-82
2022/07/13 04:38:41;;;;;;;3.80;1.98;;;;;;;21.07;49.86;100554.78;5007893;28;20468;-83
2022/07/13 04:41:10;;;;;;;3.00;2.17;;;;;;;20.99;49.32;100553.03;5027126;28;20095;-83
2022/07/13 04:43:38;;;;;;;2.97;2.00;;;;;;;20.90;48.86;100552.25;4998903;28;20056;-82
2022/07/13 04:46:13;;;;;;;3.63;2.00;;;;;;;20.89;49.08;100550.59;5023718;28;20456;-82
2022/07/13 04:48:41;;;;;;;2.75;1.70;;;;;;;20.90;48.86;100546.84;5014962;28;20040;-81
2022/07/13 04:51:09;;;;;;;2.72;2.17;;;;;;;20.91;48.65;100550.38;5018034;28;20076;-83
2022/07/13 04:53:37;;;;;;;2.38;1.50;;;;;;;20.98;48.62;100540.53;5040395;28;20123;-83
2022/07/13 04:56:09;;;;;;;2.10;1.90;;;;;;;21.01;48.72;100535.59;5027763;28;20518;-82
2022/07/13 04:58:37;;;;;;;3.63;2.00;;;;;;;21.10;48.68;100535.50;5001960;28;20136;-83
2022/07/13 05:01:07;;;;;;;3.03;1.90;;;;;;;21.14;48.55;100525.97;5016397;28;20037;-82
2022/07/13 05:04:00;;;;;;;6.55;2.10;;;;;;;21.20;48.57;100520.69;4995654;28;20048;-82
2022/07/13 05:06:27;;;;;;;3.88;1.92;;;;;;;21.19;48.69;100520.84;5010439;28;20045;-83
2022/07/13 05:08:54;;;;;;;3.05;2.08;;;;;;;21.24;48.91;100521.13;5025609;28;20048;-83
2022/07/13 05:11:21;;;;;;;2.80;2.00;;;;;;;21.31;48.87;100515.81;5022810;28;20049;-83
2022/07/13 05:13:49;;;;;;;4.55;2.60;;;;;;;21.34;48.66;100520.84;5006948;28;20037;-83
2022/07/13 05:16:16;;;;;;;5.35;2.42;;;;;;;21.31;48.70;100521.22;5003642;28;20065;-84
2022/07/13 05:18:43;;;;;;;5.20;2.50;;;;;;;21.27;48.55;100528.88;5030462;28;22763;-83
2022/07/13 05:21:16;;;;;;;2.90;2.22;;;;;;;21.27;48.95;100530.72;5004434;28;20045;-83
2022/07/13 05:23:43;;;;;;;2.78;2.20;;;;;;;21.22;48.98;100531.31;5008542;28;20235;-82
2022/07/13 05:26:11;;;;;;;3.08;2.17;;;;;;;21.19;49.20;100540.63;5051675;28;20114;-82
2022/07/13 05:28:39;;;;;;;2.40;1.95;;;;;;;21.15;49.20;100533.91;5031089;28;20045;-82
2022/07/13 05:31:09;;;;;;;2.67;2.05;;;;;;;21.22;49.29;100537.53;5008751;28;20544;-82
2022/07/13 05:33:36;;;;;;;4.30;2.00;;;;;;;21.27;49.02;100538.81;5017567;28;20064;-82
2022/07/13 05:36:11;;;;;;;4.07;2.13;;;;;;;21.29;48.92;100536.78;5023437;28;20056;-82
2022/07/13 05:38:38;;;;;;;2.85;2.30;;;;;;;21.32;49.01;100533.69;5046404;28;20047;-82
2022/07/13 05:41:06;;;;;;;4.05;2.30;;;;;;;21.34;48.86;100524.38;5006285;28;20053;-82
2022/07/13 05:43:33;;;;;;;5.43;2.22;;;;;;;21.46;49.07;100522.06;4997090;28;20053;-83
2022/07/13 05:46:01;;;;;;;5.38;2.10;;;;;;;21.55;49.05;100526.34;5046411;28;20053;-82
2022/07/13 05:48:30;;;;;;;3.95;2.20;;;;;;;21.71;49.08;100513.59;5033103;28;20455;-82
2022/07/13 05:50:57;;;;;;;6.65;2.30;;;;;;;21.87;48.52;100516.88;5008027;28;20049;-82
2022/07/13 05:53:45;;;;;;;2.15;1.95;;;;;;;21.95;48.30;100518.63;5023249;28;20056;-82
2022/07/13 05:56:13;;;;;;;2.60;2.22;;;;;;;21.98;48.07;100523.66;5026313;28;20078;-82
2022/07/13 05:58:40;;;;;;;4.30;2.15;;;;;;;21.99;48.27;100521.78;5024033;28;20476;-82
2022/07/13 06:01:12;;;;;;;2.45;1.90;;;;;;;21.94;48.31;100527.78;5010996;28;20052;-82
2022/07/13 06:03:39;;;;;;;6.15;2.90;;;;;;;21.94;48.36;100533.19;5015321;28;20126;-82
2022/07/13 06:06:06;;;;;;;6.75;2.65;;;;;;;21.91;48.43;100530.88;5018107;28;20198;-82
2022/07/13 06:08:33;;;;;;;5.22;2.20;;;;;;;21.89;48.62;100528.34;5007663;28;20044;-82
2022/07/13 06:10:59;;;;;;;6.40;2.22;;;;;;;21.95;49.15;100534.00;5021019;28;20044;-82
2022/07/13 06:13:29;;;;;;;3.55;2.20;;;;;;;21.97;48.66;100529.25;5013316;28;20044;-82
2022/07/13 06:15:57;;;;;;;4.20;2.42;;;;;;;21.93;49.06;100534.22;5009623;28;20041;-82
2022/07/13 06:18:24;;;;;;;5.68;2.50;;;;;;;21.96;48.44;100530.28;5028792;28;20044;-82
2022/07/13 06:20:52;;;;;;;3.63;2.20;;;;;;;21.99;48.36;100543.41;4990836;28;20049;-82
2022/07/13 06:23:23;;;;;;;3.72;2.05;;;;;;;22.00;48.37;100542.38;5026670;28;20129;-82
2022/07/13 06:25:54;;;;;;;2.80;2.17;;;;;;;21.96;48.34;100551.94;5026283;28;20101;-82
2022/07/13 06:28:23;;;;;;;3.75;2.08;;;;;;;22.02;47.57;100551.16;5001071;28;20139;-82
2022/07/13 06:30:50;;;;;;;3.60;1.90;;;;;;;22.06;47.59;100533.50;5010081;28;20448;-82
2022/07/13 06:33:51;;;;;;;4.90;2.63;;;;;;;22.06;47.02;100531.63;5044130;28;20509;-82
2022/07/13 06:36:18;;;;;;;2.83;2.33;;;;;;;22.12;47.47;100530.03;5001849;28;20044;-81
2022/07/13 06:38:45;;;;;;;5.70;2.42;;;;;;;22.20;47.36;100531.78;4996716;28;20045;-81
2022/07/13 06:41:12;;;;;;;5.50;2.42;;;;;;;22.28;47.51;100529.75;5026061;28;20084;-81
2022/07/13 06:43:41;;;;;;;4.82;2.30;;;;;;;22.33;47.44;100526.47;5010307;28;20051;-81
2022/07/13 06:46:08;;;;;;;5.18;1.90;;;;;;;22.39;47.35;100528.41;5041381;28;20052;-82
2022/07/13 06:48:36;;;;;;;2.45;2.22;;;;;;;22.47;47.35;100524.72;5013159;28;20053;-81
2022/07/13 06:51:03;;;;;;;3.85;2.38;;;;;;;22.51;47.32;100521.41;5033740;28;20116;-81
2022/07/13 06:53:30;;;;;;;3.13;2.35;;;;;;;22.55;47.57;100521.88;5037764;28;20037;-83
2022/07/13 06:55:57;;;;;;;2.42;2.22;;;;;;;22.61;47.29;100518.34;5029744;28;20549;-82
2022/07/13 06:58:24;;;;;;;5.93;2.42;;;;;;;22.63;47.66;100516.28;5015204;28;20175;-81
2022/07/13 07:00:51;;;;;;;4.07;2.10;;;;;;;22.69;47.80;100507.38;5008632;28;20037;-81
2022/07/13 07:03:18;;;;;;;2.78;1.90;;;;;;;22.75;47.86;100511.19;5064861;28;20045;-81
2022/07/13 07:05:45;;;;;;;3.10;2.30;;;;;;;22.87;47.42;100508.72;5016393;28;20036;-81
2022/07/13 07:08:13;;;;;;;4.03;2.17;;;;;;;22.89;47.64;100503.94;5031391;28;20732;-83
2022/07/13 07:10:40;;;;;;;2.13;1.90;;;;;;;22.95;47.91;100500.47;5027233;28;20045;-83
2022/07/13 07:13:06;;;;;;;4.25;2.08;;;;;;;22.96;47.83;100500.25;5015072;28;20056;-83
2022/07/13 07:15:34;;;;;;;2.92;1.95;;;;;;;23.02;48.10;100501.34;5031802;28;20564;-83
2022/07/13 07:18:01;;;;;;;4.43;2.03;;;;;;;23.06;48.07;100499.91;5008959;28;20056;-83
2022/07/13 07:20:35;;;;;;;2.05;1.80;;;;;;;23.09;47.73;100507.63;5013043;28;20036;-83
2022/07/13 07:23:01;;;;;;;4.88;2.40;;;;;;;23.10;47.79;100506.59;5035171;28;20045;-83
2022/07/13 07:25:28;;;;;;;3.92;2.15;;;;;;;23.18;47.46;100505.59;5037955;28;20060;-83
2022/07/13 07:27:55;;;;;;;2.55;2.17;;;;;;;23.21;47.68;100510.59;5013520;28;20467;-82
2022/07/13 07:30:22;;;;;;;3.00;2.25;;;;;;;23.26;48.04;100512.72;5032068;28;20352;-81
2022/07/13 07:32:49;;;;;;;4.90;1.85;;;;;;;23.33;47.94;100514.41;5048769;28;20128;-82
2022/07/13 07:35:17;;;;;;;5.88;2.15;;;;;;;23.35;47.87;100515.03;5005080;28;20037;-82
2022/07/13 07:37:44;;;;;;;1.95;1.85;;;;;;;23.38;47.68;100511.94;5027008;28;20036;-82
2022/07/13 07:40:11;;;;;;;2.10;1.83;;;;;;;23.43;48.05;100514.00;5029439;28;20054;-82
2022/07/13 07:42:38;;;;;;;3.42;1.80;;;;;;;23.45;47.54;100514.63;5034475;28;20052;-82
2022/07/13 07:45:06;;;;;;;4.63;2.00;;;;;;;23.46;47.45;100510.06;5032451;28;20048;-81
2022/07/13 07:47:33;;;;;;;4.78;2.13;;;;;;;23.52;47.66;100506.53;5009829;28;20060;-81
2022/07/13 07:50:00;;;;;;;5.28;2.00;;;;;;;23.55;47.53;100506.13;5032557;28;20041;-85
2022/07/13 07:52:26;;;;;;;2.72;1.90;;;;;;;23.55;47.48;100503.41;5029032;28;20788;-84
2022/07/13 07:58:55;;;;;;;3.35;2.00;;;;;;;23.56;48.09;100486.97;4972996;28;20086;-84
2022/07/13 08:01:22;;;;;;;3.08;1.88;;;;;;;23.54;48.60;100486.31;5042108;28;20044;-84
2022/07/13 08:03:54;;;;;;;2.13;1.92;;;;;;;23.51;48.18;100494.00;5044979;28;20051;-84
2022/07/13 08:06:22;;;;;;;2.17;1.60;;;;;;;23.54;47.63;100493.63;5012074;28;20055;-84
2022/07/13 08:08:50;;;;;;;3.25;2.03;;;;;;;23.59;47.83;100485.72;5032571;28;20037;-83
2022/07/13 08:11:18;;;;;;;2.95;1.85;;;;;;;23.59;47.85;100480.28;5033419;28;20082;-83
2022/07/13 08:13:46;;;;;;;4.97;1.90;;;;;;;23.62;48.21;100478.00;5020265;28;20048;-84
2022/07/13 08:16:15;;;;;;;3.00;1.75;;;;;;;23.67;47.58;100471.13;4997062;28;20135;-81
2022/07/13 08:18:43;;;;;;;7.25;1.88;;;;;;;23.72;47.89;100477.63;5027367;28;20049;-83
2022/07/13 08:21:31;;;;;;;2.05;1.77;;;;;;;23.75;48.21;100474.50;5032275;28;20181;-83
2022/07/13 08:23:58;;;;;;;3.13;1.98;;;;;;;23.80;48.51;100466.56;5008870;28;20048;-81
2022/07/13 08:26:30;;;;;;;4.65;1.88;;;;;;;23.92;48.17;100469.53;5011582;28;20044;-84
2022/07/13 08:28:58;;;;;;;3.25;2.10;;;;;;;23.97;47.95;100471.63;5015130;28;20049;-82
2022/07/13 08:31:25;;;;;;;2.58;2.35;;;;;;;24.07;47.75;100476.59;5013772;28;20118;-80
2022/07/13 08:39:25;;;;;;;6.85;1.60;;;;;;;24.21;47.83;100464.72;5016580;28;20496;-85
2022/07/13 08:41:52;;;;;;;2.70;1.90;;;;;;;24.25;46.98;100460.53;5027711;28;20040;-85
2022/07/13 08:44:19;;;;;;;3.67;1.85;;;;;;;24.32;46.82;100458.63;5048709;28;20054;-85
2022/07/13 08:46:46;;;;;;;4.75;2.33;;;;;;;24.36;47.25;100457.19;4998932;28;20053;-82
2022/07/13 08:49:13;;;;;;;4.78;2.00;;;;;;;24.43;47.28;100458.00;4997064;28;20034;-84
2022/07/13 08:51:42;;;;;;;4.00;1.92;;;;;;;24.47;47.30;100453.88;5014371;28;20099;-85
2022/07/13 08:54:09;;;;;;;2.95;2.15;;;;;;;24.51;47.17;100453.44;5010546;28;20067;-83
2022/07/13 08:56:36;;;;;;;4.65;1.80;;;;;;;24.49;47.06;100459.06;5058433;28;20130;-88
2022/07/13 08:59:02;;;;;;;1.90;1.80;;;;;;;24.51;47.02;100458.88;5011315;28;20506;-83
2022/07/13 09:01:30;;;;;;;2.17;1.90;;;;;;;24.53;47.06;100457.59;5023688;28;20049;-83
2022/07/13 09:03:57;;;;;;;4.22;2.00;;;;;;;24.59;46.98;100456.75;5015094;28;21539;-83
2022/07/13 09:06:39;;;;;;;2.65;1.90;;;;;;;24.64;46.05;100458.81;5055720;28;20048;-83
2022/07/13 09:09:07;;;;;;;1.60;1.50;;;;;;;24.71;46.51;100456.09;4977924;28;20131;-83
2022/07/13 09:11:34;;;;;;;3.22;1.75;;;;;;;24.76;46.37;100454.41;5037259;28;20448;-82
2022/07/13 09:14:00;;;;;;;1.92;1.77;;;;;;;24.77;46.23;100455.25;5019418;28;20103;-81
2022/07/13 09:16:28;;;;;;;3.33;1.98;;;;;;;24.87;44.99;100445.59;5028549;28;20095;-84
2022/07/13 09:18:58;;;;;;;2.15;1.88;;;;;;;24.97;44.86;100449.75;5029857;28;20069;-84
2022/07/13 09:21:32;;;;;;;2.17;1.77;;;;;;;24.98;44.83;100441.34;5013114;28;20041;-84
2022/07/13 09:24:03;;;;;;;1.77;1.67;;;;;;;25.04;44.62;100447.84;4989707;28;20489;-84
2022/07/13 09:26:46;;;;;;;2.15;1.88;;;;;;;25.07;43.33;100447.41;5015992;28;20044;-83
2022/07/13 09:29:38;;;;;;;2.97;1.40;;;;;;;25.22;42.57;100442.53;5023676;28;20041;-82
2022/07/13 09:32:11;;;;;;;2.78;1.98;;;;;;;25.30;42.96;100439.56;4996121;28;20052;-78
2022/07/13 09:34:51;;;;;;;1.83;1.73;;;;;;;25.34;42.38;100440.81;5001801;28;20038;-82
2022/07/13 09:37:19;;;;;;;2.08;1.70;;;;;;;25.48;42.54;100436.13;5040485;28;20132;-82
2022/07/13 09:40:00;;;;;;;2.92;1.60;;;;;;;25.45;41.64;100436.56;5030947;28;21040;-82
2022/07/13 09:42:32;;;;;;;4.13;1.60;;;;;;;25.52;42.71;100431.91;5000839;28;20048;-83
2022/07/13 09:47:54;;;;;;;3.22;1.80;;;;;;;25.85;40.71;100430.88;4960478;28;20065;-85
2022/07/13 09:50:37;;;;;;;1.75;1.50;;;;;;;25.92;39.30;100428.91;4996931;28;20059;-85
2022/07/13 09:53:24;;;;;;;3.10;1.80;;;;;;;25.93;39.06;100416.16;5002396;28;20048;-83
2022/07/13 09:55:53;;;;;;;4.35;1.65;;;;;;;26.07;40.04;100423.13;5013340;28;20107;-84
2022/07/13 09:58:31;;;;;;;2.40;1.50;;;;;;;26.11;39.07;100412.66;5062086;28;20072;-85
2022/07/13 10:01:04;;;;;;;3.08;1.52;;;;;;;26.24;39.97;100406.25;5009799;28;20132;-86
2022/07/13 10:03:33;;;;;;;3.08;1.70;;;;;;;26.32;39.83;100414.09;5038822;28;20041;-84
2022/07/13 10:06:05;;;;;;;1.67;1.58;;;;;;;26.41;38.73;100412.75;5043100;28;20045;-83
2022/07/13 10:08:34;;;;;;;3.75;1.58;;;;;;;26.46;38.63;100414.78;5006312;28;20051;-82
2022/07/13 10:11:01;;;;;;;1.58;1.25;;;;;;;26.47;39.73;100406.41;5030910;28;20127;-83
2022/07/13 10:13:30;;;;;;;4.70;1.40;;;;;;;26.53;39.41;100407.41;5024254;28;20073;-81
2022/07/13 10:15:58;;;;;;;2.85;1.88;;;;;;;26.61;38.51;100413.41;5002570;28;20080;-82
2022/07/13 10:18:28;;;;;;;2.45;1.65;;;;;;;26.62;37.72;100417.78;5028955;28;20451;-83
2022/07/13 10:21:10;;;;;;;1.52;1.42;;;;;;;26.60;36.02;100416.34;5026895;28;20438;-85
2022/07/13 10:23:38;;;;;;;3.35;1.90;;;;;;;26.59;37.45;100410.06;5004137;28;20049;-84
2022/07/13 10:26:24;;;;;;;3.55;2.22;;;;;;;26.52;36.47;100403.84;5012004;28;20039;-83
2022/07/13 10:29:10;;;;;;;2.85;1.70;;;;;;;26.52;36.86;100403.00;5002651;28;20041;-83
2022/07/13 10:31:40;;;;;;;2.00;1.80;;;;;;;26.55;37.56;100399.84;4988737;28;20052;-83
2022/07/13 10:34:10;;;;;;;3.40;2.20;;;;;;;26.60;37.59;100409.00;5009362;28;20133;-84
2022/07/13 10:36:51;;;;;;;3.35;1.98;;;;;;;26.67;36.46;100403.47;5012300;28;20121;-83
2022/07/13 10:39:21;;;;;;;3.00;2.70;;;;;;;26.75;37.35;100394.16;5028669;28;20045;-83
2022/07/13 10:42:03;;;;;;;2.53;2.10;;;;;;;26.80;37.13;100391.59;5027076;28;20052;-83
2022/07/13 10:44:38;;;;;;;3.05;2.20;;;;;;;26.83;37.21;100391.94;4937849;28;20057;-85
2022/07/13 10:47:06;;;;;;;2.95;1.92;;;;;;;26.90;36.63;100393.78;4992353;28;20057;-84
2022/07/13 10:49:40;;;;;;;2.88;2.10;;;;;;;26.85;36.39;100397.19;4992033;28;20046;-84
2022/07/13 10:52:19;;;;;;;5.80;2.25;;;;;;;26.83;35.71;100391.13;5008585;28;20045;-82
2022/07/13 10:55:02;;;;;;;1.77;1.67;;;;;;;26.80;35.86;100395.13;4972538;28;20752;-83
2022/07/13 10:57:32;;;;;;;2.47;1.30;;;;;;;26.75;36.14;100386.81;5007380;28;20587;-82
2022/07/13 11:00:14;;;;;;;1.48;1.38;;;;;;;26.75;34.66;100386.81;4975725;28;20408;-81
2022/07/13 11:02:54;;;;;;;1.60;1.50;;;;;;;26.73;34.93;100399.00;4995087;28;20085;-84
2022/07/13 11:05:26;;;;;;;2.78;1.90;;;;;;;26.76;35.83;100383.03;4974873;28;20672;-83
2022/07/13 11:07:53;;;;;;;1.50;1.40;;;;;;;26.84;35.29;100382.72;4982619;28;20049;-85
2022/07/13 11:10:28;;;;;;;3.28;1.50;;;;;;;26.90;35.11;100369.25;4964311;28;20159;-85
2022/07/13 11:13:03;;;;;;;3.10;1.40;;;;;;;26.98;34.96;100374.38;5004123;28;20038;-84
2022/07/13 11:19:52;;;;;;;6.30;1.92;;;;;;;27.10;33.59;100358.06;4991325;28;20040;-82
2022/07/13 11:22:21;;;;;;;1.70;1.60;;;;;;;27.19;34.93;100354.78;5025331;28;20143;-84
2022/07/13 11:25:14;;;;;;;2.17;1.60;;;;;;;27.26;33.73;100338.34;5045636;28;20041;-85
2022/07/13 11:27:51;;;;;;;3.17;1.50;;;;;;;27.47;33.12;100351.41;4985428;28;20049;-85
2022/07/13 11:30:26;;;;;;;2.00;1.70;;;;;;;27.55;32.90;100341.25;5014456;28;20037;-85
2022/07/13 11:32:53;;;;;;;1.60;1.50;;;;;;;27.60;34.57;100334.00;5002133;28;20049;-85
2022/07/13 11:35:21;;;;;;;3.28;1.60;;;;;;;27.75;33.94;100330.00;4989991;28;20042;-84
2022/07/13 11:37:48;;;;;;;2.53;1.20;;;;;;;27.75;33.08;100333.53;5032261;28;20041;-84
2022/07/13 11:40:31;;;;;;;1.55;1.45;;;;;;;27.77;32.27;100327.84;5019322;28;20174;-84
2022/07/13 11:42:59;;;;;;;4.85;1.42;;;;;;;27.85;31.77;100325.63;4983591;28;20565;-84
2022/07/13 11:45:39;;;;;;;3.70;1.25;;;;;;;27.83;31.52;100322.28;5019010;28;20044;-83
2022/07/13 11:51:51;;;;;;;4.55;1.42;;;;;;;27.97;31.84;100311.16;4999215;28;20405;-84
2022/07/13 11:54:20;;;;;;;3.13;1.50;;;;;;;28.04;31.42;100317.31;5007461;28;20052;-85
2022/07/13 11:56:56;;;;;;;2.25;1.50;;;;;;;28.04;31.17;100307.22;5033324;28;20070;-83